»·PEaware :: DFGCW KEMM-KLWL

DFGCW :: KEMM-KLWL

FLIGHT INFORMATION

Flight Status: Arrived
Operator: Unknown
More flights by this operator :: More flights under this callsign
Pilot: Klaus A. (15485)
Aircraft: PILATUS PC-12 EAGLE
(PC12)
More flights by this aircraft type
Origin: KEMM Kemmerer Mun
United States
Destination: KLWL Wells Mun/Harriet
United States
More flights between these airports :: More routes between these airports
Route: KEMRR5 FBR V288 LCU V6 LWL
File this flight plan on PilotEdge
Remarks: PBN / D2 DOF / 180902 REG / DFGCW PER / B RMK / TCAS SIMBRIEF
Altitude:
(Current/Filed)
24,000ft
Speed:
(Current/Filed)
271kts
Departed: 02-Sep-18 07:58 AM
Arrived: 02-Sep-18 09:05 AM
Distance/Time
Traveled:
201nm/1:07
Distance/Time
To Go:
Arrived

Flight Plot

Page will automatically refresh every two minutes.

Flight plan parsing failed; only flown route is shown


Map Options




Map Legend


Flown Route
Filed Route
Departure Airport
Arrival Airport
Navaid (VOR, NDB)
Fix

Horizontal Profiles

Position Reports

Time Latitude Longitude Heading Altitude Ground
Speed
02-Sep-18 07:43 41.820291 -110.555995 356 7291ft 0kts
02-Sep-18 07:44 41.820291 -110.555995 356 7291ft 0kts
02-Sep-18 07:45 41.820291 -110.555995 356 7291ft 0kts
02-Sep-18 07:46 41.820291 -110.555995 356 7291ft 0kts
02-Sep-18 07:47 41.820291 -110.555995 356 7291ft 0kts
02-Sep-18 07:48 41.820291 -110.555995 356 7291ft 0kts
02-Sep-18 07:49 41.820291 -110.555995 356 7291ft 0kts
02-Sep-18 07:50 41.820291 -110.555995 355 7291ft 0kts
02-Sep-18 07:51 41.820291 -110.555995 356 7291ft 0kts
02-Sep-18 07:52 41.820291 -110.555995 356 7291ft 0kts
02-Sep-18 07:53 41.820486 -110.556282 263 7291ft 0kts
02-Sep-18 07:54 41.820486 -110.556282 263 7291ft 0kts
02-Sep-18 07:55 41.820912 -110.557235 351 7291ft 10kts
02-Sep-18 07:56 41.825989 -110.557937 352 7291ft 26kts
02-Sep-18 07:57 41.832941 -110.558812 319 7291ft 7kts
02-Sep-18 07:58 41.832839 -110.558940 171 7291ft 0kts
02-Sep-18 07:59 41.817920 -110.556443 175 7754ft 123kts
02-Sep-18 08:00 41.779370 -110.546040 169 9614ft 154kts
02-Sep-18 08:01 41.737352 -110.531625 171 11508ft 159kts
02-Sep-18 08:02 41.693056 -110.519187 167 13017ft 178kts
02-Sep-18 08:03 41.642401 -110.503755 167 14298ft 193kts
02-Sep-18 08:04 41.589982 -110.487529 168 15723ft 195kts
02-Sep-18 08:05 41.536641 -110.471360 168 17009ft 199kts
02-Sep-18 08:06 41.482222 -110.455020 168 18182ft 203kts
02-Sep-18 08:07 41.426581 -110.438423 168 19231ft 207kts
02-Sep-18 08:08 41.369910 -110.421610 168 20184ft 211kts
02-Sep-18 08:09 41.351919 -110.470155 297 21048ft 201kts
02-Sep-18 08:10 41.377953 -110.536623 297 21898ft 205kts
02-Sep-18 08:11 41.404132 -110.604281 297 22728ft 208kts
02-Sep-18 08:12 41.427618 -110.674534 264 23444ft 216kts
02-Sep-18 08:13 41.418660 -110.753228 271 24052ft 221kts
02-Sep-18 08:14 41.422539 -110.840225 277 24033ft 245kts
02-Sep-18 08:15 41.430592 -110.931968 278 24029ft 254kts
02-Sep-18 08:16 41.439764 -111.026308 278 24028ft 258kts
02-Sep-18 08:17 41.448946 -111.119509 278 24027ft 260kts
02-Sep-18 08:18 41.458341 -111.215286 278 24027ft 260kts
02-Sep-18 08:19 41.467640 -111.310779 278 24027ft 261kts
02-Sep-18 08:20 41.476895 -111.406649 278 24027ft 261kts
02-Sep-18 08:21 41.486086 -111.502668 278 23926ft 264kts
02-Sep-18 08:22 41.495276 -111.599825 278 23916ft 262kts
02-Sep-18 08:23 41.503914 -111.695081 277 23892ft 262kts
02-Sep-18 08:24 41.512629 -111.791144 278 23890ft 261kts
02-Sep-18 08:25 41.521469 -111.887353 278 23889ft 261kts
02-Sep-18 08:26 41.530251 -111.983466 278 23899ft 260kts
02-Sep-18 08:27 41.538880 -112.078909 278 23896ft 260kts
02-Sep-18 08:28 41.547456 -112.174919 278 23898ft 260kts
02-Sep-18 08:29 41.546546 -112.270756 270 23892ft 261kts
02-Sep-18 08:30 41.540007 -112.366857 264 23899ft 261kts
02-Sep-18 08:31 41.529912 -112.462861 262 23904ft 261kts
02-Sep-18 08:32 41.518841 -112.558794 262 23899ft 261kts
02-Sep-18 08:33 41.507901 -112.653921 262 23900ft 261kts
02-Sep-18 08:34 41.496597 -112.749547 262 23898ft 262kts
02-Sep-18 08:35 41.485216 -112.846466 262 23789ft 265kts
02-Sep-18 08:36 41.473761 -112.942786 262 23691ft 265kts
02-Sep-18 08:37 41.462423 -113.037623 262 22663ft 251kts
02-Sep-18 08:38 41.451153 -113.131093 262 21685ft 260kts
02-Sep-18 08:39 41.439699 -113.225974 262 20693ft 260kts
02-Sep-18 08:40 41.428164 -113.320887 261 19696ft 259kts
02-Sep-18 08:41 41.416530 -113.415755 261 18696ft 259kts
02-Sep-18 08:42 41.404890 -113.509946 261 17702ft 258kts
02-Sep-18 08:43 41.393120 -113.603663 261 16700ft 255kts
02-Sep-18 08:44 41.381416 -113.695441 260 15710ft 251kts
02-Sep-18 08:45 41.369875 -113.786408 260 14722ft 247kts
02-Sep-18 08:46 41.358551 -113.875457 260 14036ft 233kts
02-Sep-18 08:47 41.342964 -113.956442 255 14103ft 229kts
02-Sep-18 08:48 41.326696 -114.040483 256 14100ft 237kts
02-Sep-18 08:49 41.310687 -114.126393 256 13996ft 240kts
02-Sep-18 08:50 41.294874 -114.211699 256 13997ft 236kts
02-Sep-18 08:51 41.279081 -114.296575 256 13997ft 236kts
02-Sep-18 08:52 41.263204 -114.381451 256 13997ft 236kts
02-Sep-18 08:53 41.246886 -114.468914 256 13445ft 251kts
02-Sep-18 08:54 41.230241 -114.557248 255 12798ft 226kts
02-Sep-18 08:55 41.212804 -114.630447 254 12127ft 197kts
02-Sep-18 08:56 41.199555 -114.698316 253 11505ft 187kts
02-Sep-18 08:57 41.186675 -114.764235 253 10887ft 183kts
02-Sep-18 08:58 41.174006 -114.829050 253 10307ft 176kts
02-Sep-18 08:59 41.162578 -114.887288 253 10340ft 154kts
02-Sep-18 09:00 41.141735 -114.935546 234 9818ft 176kts
02-Sep-18 09:01 41.128582 -114.985745 216 8955ft 143kts
02-Sep-18 09:02 41.097429 -114.972566 108 7346ft 151kts
02-Sep-18 09:03 41.093084 -114.924712 87 6912ft 115kts
02-Sep-18 09:04 41.098110 -114.885100 27 6749ft 121kts
02-Sep-18 09:05 41.114607 -114.901247 256 6113ft 100kts
02-Sep-18 09:06 41.115908 -114.924506 209 5776ft 10kts
02-Sep-18 09:07 41.115556 -114.926384 179 5776ft 0kts
02-Sep-18 09:08 41.115556 -114.926384 179 5776ft 0kts
02-Sep-18 09:10 41.115556 -114.926384 179 5776ft 0kts
02-Sep-18 09:11 41.115556 -114.926384 179 5776ft 0kts
02-Sep-18 09:12 41.115556 -114.926384 179 5776ft 0kts
02-Sep-18 09:13 41.115556 -114.926384 179 5776ft 0kts
02-Sep-18 09:14 41.115556 -114.926384 179 5776ft 0kts
02-Sep-18 09:15 41.115556 -114.926384 179 5776ft 0kts
02-Sep-18 09:16 41.115556 -114.926384 179 5776ft 0kts
02-Sep-18 09:17 41.115556 -114.926384 179 5776ft 0kts
02-Sep-18 09:18 41.115556 -114.926384 179 5776ft 0kts
02-Sep-18 09:19 41.115556 -114.926384 179 5776ft 0kts
02-Sep-18 09:20 41.115556 -114.926384 179 5776ft 0kts

Navigation Log

Ident Type
Flight plan parsing failed, navigation log unavailable